sensor_id;sensor_type;location;lat;lon;timestamp;temperature;humidity
45549;DHT22;31270;48.328;10.096;2023-07-29T00:00:52;16.70;99.90
45549;DHT22;31270;48.328;10.096;2023-07-29T00:03:18;16.70;99.90
45549;DHT22;31270;48.328;10.096;2023-07-29T00:05:43;16.70;99.90
45549;DHT22;31270;48.328;10.096;2023-07-29T00:08:09;16.70;99.90
45549;DHT22;31270;48.328;10.096;2023-07-29T00:10:38;16.70;99.90
45549;DHT22;31270;48.328;10.096;2023-07-29T00:13:05;16.70;99.90
45549;DHT22;31270;48.328;10.096;2023-07-29T00:15:31;16.70;99.90
45549;DHT22;31270;48.328;10.096;2023-07-29T00:17:56;16.70;99.90
45549;DHT22;31270;48.328;10.096;2023-07-29T00:20:22;16.70;99.90
45549;DHT22;31270;48.328;10.096;2023-07-29T00:22:47;16.70;99.90
45549;DHT22;31270;48.328;10.096;2023-07-29T00:25:18;16.60;99.90
45549;DHT22;31270;48.328;10.096;2023-07-29T00:27:43;16.60;99.90
45549;DHT22;31270;48.328;10.096;2023-07-29T00:30:09;16.60;99.90
45549;DHT22;31270;48.328;10.096;2023-07-29T00:32:35;16.60;99.90
45549;DHT22;31270;48.328;10.096;2023-07-29T00:35:01;16.60;99.90
45549;DHT22;31270;48.328;10.096;2023-07-29T00:37:28;16.50;99.90
45549;DHT22;31270;48.328;10.096;2023-07-29T00:39:53;16.50;99.90
45549;DHT22;31270;48.328;10.096;2023-07-29T00:42:19;16.50;99.90
45549;DHT22;31270;48.328;10.096;2023-07-29T00:44:45;16.50;99.90
45549;DHT22;31270;48.328;10.096;2023-07-29T00:47:11;16.50;99.90
45549;DHT22;31270;48.328;10.096;2023-07-29T00:49:38;16.40;99.90
45549;DHT22;31270;48.328;10.096;2023-07-29T00:52:04;16.40;99.90
45549;DHT22;31270;48.328;10.096;2023-07-29T00:54:29;16.40;99.90
45549;DHT22;31270;48.328;10.096;2023-07-29T00:56:55;16.40;99.90
45549;DHT22;31270;48.328;10.096;2023-07-29T00:59:21;16.30;99.90
45549;DHT22;31270;48.328;10.096;2023-07-29T01:01:46;16.30;99.90
45549;DHT22;31270;48.328;10.096;2023-07-29T01:04:12;16.30;99.90
45549;DHT22;31270;48.328;10.096;2023-07-29T01:09:24;16.20;99.90
45549;DHT22;31270;48.328;10.096;2023-07-29T01:14:29;16.20;99.90
45549;DHT22;31270;48.328;10.096;2023-07-29T01:17:03;16.10;99.90
45549;DHT22;31270;48.328;10.096;2023-07-29T01:22:24;16.10;99.90
45549;DHT22;31270;48.328;10.096;2023-07-29T01:24:50;16.00;99.90
45549;DHT22;31270;48.328;10.096;2023-07-29T01:27:16;16.00;99.90
45549;DHT22;31270;48.328;10.096;2023-07-29T01:29:41;16.00;99.90
45549;DHT22;31270;48.328;10.096;2023-07-29T01:32:11;16.00;99.90
45549;DHT22;31270;48.328;10.096;2023-07-29T01:35:24;16.10;99.90
45549;DHT22;31270;48.328;10.096;2023-07-29T01:37:51;16.00;99.90
45549;DHT22;31270;48.328;10.096;2023-07-29T01:40:18;16.00;99.90
45549;DHT22;31270;48.328;10.096;2023-07-29T01:42:44;16.00;99.90
45549;DHT22;31270;48.328;10.096;2023-07-29T01:45:11;16.00;99.90
45549;DHT22;31270;48.328;10.096;2023-07-29T01:47:37;16.00;99.90
45549;DHT22;31270;48.328;10.096;2023-07-29T01:50:06;16.00;99.90
45549;DHT22;31270;48.328;10.096;2023-07-29T01:52:32;16.00;99.90
45549;DHT22;31270;48.328;10.096;2023-07-29T01:54:57;16.00;99.90
45549;DHT22;31270;48.328;10.096;2023-07-29T01:57:23;16.00;99.90
45549;DHT22;31270;48.328;10.096;2023-07-29T01:59:49;16.10;99.90
45549;DHT22;31270;48.328;10.096;2023-07-29T02:02:14;16.10;99.90
45549;DHT22;31270;48.328;10.096;2023-07-29T02:04:40;16.10;99.90
45549;DHT22;31270;48.328;10.096;2023-07-29T02:07:06;16.10;99.90
45549;DHT22;31270;48.328;10.096;2023-07-29T02:09:32;16.10;99.90
45549;DHT22;31270;48.328;10.096;2023-07-29T02:11:58;16.10;99.90
45549;DHT22;31270;48.328;10.096;2023-07-29T02:14:24;16.20;99.90
45549;DHT22;31270;48.328;10.096;2023-07-29T02:16:49;16.20;99.90
45549;DHT22;31270;48.328;10.096;2023-07-29T02:19:16;16.20;99.90
45549;DHT22;31270;48.328;10.096;2023-07-29T02:21:41;16.20;99.90
45549;DHT22;31270;48.328;10.096;2023-07-29T02:24:07;16.20;99.90
45549;DHT22;31270;48.328;10.096;2023-07-29T02:26:33;16.20;99.90
45549;DHT22;31270;48.328;10.096;2023-07-29T02:28:58;16.30;99.90
45549;DHT22;31270;48.328;10.096;2023-07-29T02:31:25;16.20;99.90
45549;DHT22;31270;48.328;10.096;2023-07-29T02:33:51;16.30;99.90
45549;DHT22;31270;48.328;10.096;2023-07-29T02:36:17;16.20;99.90
45549;DHT22;31270;48.328;10.096;2023-07-29T02:38:43;16.20;99.90
45549;DHT22;31270;48.328;10.096;2023-07-29T02:41:09;16.30;99.90
45549;DHT22;31270;48.328;10.096;2023-07-29T02:43:36;16.30;99.90
45549;DHT22;31270;48.328;10.096;2023-07-29T02:46:04;16.30;99.90
45549;DHT22;31270;48.328;10.096;2023-07-29T02:48:30;16.30;99.90
45549;DHT22;31270;48.328;10.096;2023-07-29T02:50:56;16.20;99.90
45549;DHT22;31270;48.328;10.096;2023-07-29T02:53:23;16.20;99.90
45549;DHT22;31270;48.328;10.096;2023-07-29T02:55:49;16.20;99.90
45549;DHT22;31270;48.328;10.096;2023-07-29T02:58:14;16.10;99.90
45549;DHT22;31270;48.328;10.096;2023-07-29T03:00:40;16.20;99.90
45549;DHT22;31270;48.328;10.096;2023-07-29T03:03:10;16.20;99.90
45549;DHT22;31270;48.328;10.096;2023-07-29T03:05:36;16.10;99.90
45549;DHT22;31270;48.328;10.096;2023-07-29T03:08:03;16.10;99.90
45549;DHT22;31270;48.328;10.096;2023-07-29T03:10:29;16.00;99.90
45549;DHT22;31270;48.328;10.096;2023-07-29T03:12:55;16.00;99.90
45549;DHT22;31270;48.328;10.096;2023-07-29T03:15:25;15.90;99.90
45549;DHT22;31270;48.328;10.096;2023-07-29T03:17:51;16.00;99.90
45549;DHT22;31270;48.328;10.096;2023-07-29T03:20:17;16.00;99.90
45549;DHT22;31270;48.328;10.096;2023-07-29T03:22:44;15.90;99.90
45549;DHT22;31270;48.328;10.096;2023-07-29T03:25:09;15.90;99.90
45549;DHT22;31270;48.328;10.096;2023-07-29T03:27:35;16.00;99.90
45549;DHT22;31270;48.328;10.096;2023-07-29T03:30:06;16.00;99.90
45549;DHT22;31270;48.328;10.096;2023-07-29T03:32:32;16.00;99.90
45549;DHT22;31270;48.328;10.096;2023-07-29T03:34:58;15.90;99.90
45549;DHT22;31270;48.328;10.096;2023-07-29T03:37:25;15.90;99.90
45549;DHT22;31270;48.328;10.096;2023-07-29T03:39:50;16.00;99.90
45549;DHT22;31270;48.328;10.096;2023-07-29T03:42:17;16.00;99.90
45549;DHT22;31270;48.328;10.096;2023-07-29T03:44:43;16.00;99.90
45549;DHT22;31270;48.328;10.096;2023-07-29T03:47:08;15.90;99.90
45549;DHT22;31270;48.328;10.096;2023-07-29T03:49:34;15.90;99.90
45549;DHT22;31270;48.328;10.096;2023-07-29T03:51:59;16.10;99.90
45549;DHT22;31270;48.328;10.096;2023-07-29T03:54:25;15.90;99.90
45549;DHT22;31270;48.328;10.096;2023-07-29T03:56:51;15.90;99.90
45549;DHT22;31270;48.328;10.096;2023-07-29T03:59:17;15.90;99.90
45549;DHT22;31270;48.328;10.096;2023-07-29T04:01:42;16.00;99.90
45549;DHT22;31270;48.328;10.096;2023-07-29T04:04:08;16.00;99.90
45549;DHT22;31270;48.328;10.096;2023-07-29T04:06:34;16.00;99.90
45549;DHT22;31270;48.328;10.096;2023-07-29T04:08:59;16.10;99.90
45549;DHT22;31270;48.328;10.096;2023-07-29T04:11:25;16.20;99.90
45549;DHT22;31270;48.328;10.096;2023-07-29T04:13:51;16.20;99.90
45549;DHT22;31270;48.328;10.096;2023-07-29T04:16:23;16.20;99.90
45549;DHT22;31270;48.328;10.096;2023-07-29T04:18:49;16.20;99.90
45549;DHT22;31270;48.328;10.096;2023-07-29T04:21:14;16.30;99.90
45549;DHT22;31270;48.328;10.096;2023-07-29T04:23:40;16.20;99.90
45549;DHT22;31270;48.328;10.096;2023-07-29T04:26:05;16.20;99.90
45549;DHT22;31270;48.328;10.096;2023-07-29T04:28:31;16.20;99.90
45549;DHT22;31270;48.328;10.096;2023-07-29T04:30:56;16.20;99.90
45549;DHT22;31270;48.328;10.096;2023-07-29T04:33:22;16.10;99.90
45549;DHT22;31270;48.328;10.096;2023-07-29T04:35:48;16.10;99.90
45549;DHT22;31270;48.328;10.096;2023-07-29T04:38:13;16.10;99.90
45549;DHT22;31270;48.328;10.096;2023-07-29T04:40:39;16.10;99.90
45549;DHT22;31270;48.328;10.096;2023-07-29T04:43:04;16.10;99.90
45549;DHT22;31270;48.328;10.096;2023-07-29T04:45:30;16.10;99.90
45549;DHT22;31270;48.328;10.096;2023-07-29T04:47:56;16.10;99.90
45549;DHT22;31270;48.328;10.096;2023-07-29T04:50:22;16.00;99.90
45549;DHT22;31270;48.328;10.096;2023-07-29T04:52:47;16.20;99.90
45549;DHT22;31270;48.328;10.096;2023-07-29T04:55:13;16.30;99.90
45549;DHT22;31270;48.328;10.096;2023-07-29T04:57:38;16.20;99.90
45549;DHT22;31270;48.328;10.096;2023-07-29T05:00:05;16.40;99.90
45549;DHT22;31270;48.328;10.096;2023-07-29T05:02:32;16.30;99.90
45549;DHT22;31270;48.328;10.096;2023-07-29T05:04:58;16.40;99.90
45549;DHT22;31270;48.328;10.096;2023-07-29T05:07:23;16.40;99.90
45549;DHT22;31270;48.328;10.096;2023-07-29T05:09:49;16.40;99.90
45549;DHT22;31270;48.328;10.096;2023-07-29T05:12:14;16.60;99.90
45549;DHT22;31270;48.328;10.096;2023-07-29T05:14:40;16.60;99.90
45549;DHT22;31270;48.328;10.096;2023-07-29T05:17:06;16.80;99.90
45549;DHT22;31270;48.328;10.096;2023-07-29T05:19:31;16.70;99.90
45549;DHT22;31270;48.328;10.096;2023-07-29T05:21:57;16.80;99.90
45549;DHT22;31270;48.328;10.096;2023-07-29T05:24:23;16.80;99.90
45549;DHT22;31270;48.328;10.096;2023-07-29T05:26:49;16.90;99.90
45549;DHT22;31270;48.328;10.096;2023-07-29T05:29:15;17.00;99.90
45549;DHT22;31270;48.328;10.096;2023-07-29T05:31:41;17.10;99.90
45549;DHT22;31270;48.328;10.096;2023-07-29T05:34:06;17.10;99.90
45549;DHT22;31270;48.328;10.096;2023-07-29T05:36:32;17.00;99.90
45549;DHT22;31270;48.328;10.096;2023-07-29T05:38:58;16.90;99.90
45549;DHT22;31270;48.328;10.096;2023-07-29T05:41:24;16.90;99.90
45549;DHT22;31270;48.328;10.096;2023-07-29T05:43:53;16.80;99.90
45549;DHT22;31270;48.328;10.096;2023-07-29T05:46:25;16.90;99.90
45549;DHT22;31270;48.328;10.096;2023-07-29T05:48:51;16.80;99.90
45549;DHT22;31270;48.328;10.096;2023-07-29T05:51:17;16.80;99.90
45549;DHT22;31270;48.328;10.096;2023-07-29T05:53:42;16.70;99.90
45549;DHT22;31270;48.328;10.096;2023-07-29T05:56:08;16.70;99.90
45549;DHT22;31270;48.328;10.096;2023-07-29T05:58:42;16.90;99.90
45549;DHT22;31270;48.328;10.096;2023-07-29T06:01:09;16.80;99.90
45549;DHT22;31270;48.328;10.096;2023-07-29T06:03:35;16.90;99.90
45549;DHT22;31270;48.328;10.096;2023-07-29T06:06:00;17.00;99.90
45549;DHT22;31270;48.328;10.096;2023-07-29T06:08:26;17.10;99.90
45549;DHT22;31270;48.328;10.096;2023-07-29T06:10:53;17.00;99.90
45549;DHT22;31270;48.328;10.096;2023-07-29T06:13:19;17.20;99.90
45549;DHT22;31270;48.328;10.096;2023-07-29T06:15:45;17.20;99.90
45549;DHT22;31270;48.328;10.096;2023-07-29T06:18:10;17.30;99.90
45549;DHT22;31270;48.328;10.096;2023-07-29T06:20:36;17.30;99.90
45549;DHT22;31270;48.328;10.096;2023-07-29T06:23:02;17.60;99.90
45549;DHT22;31270;48.328;10.096;2023-07-29T06:25:27;17.60;99.90
45549;DHT22;31270;48.328;10.096;2023-07-29T06:27:53;17.60;99.90
45549;DHT22;31270;48.328;10.096;2023-07-29T06:30:18;17.50;99.90
45549;DHT22;31270;48.328;10.096;2023-07-29T06:32:44;17.50;99.90
45549;DHT22;31270;48.328;10.096;2023-07-29T06:35:10;17.60;99.90
45549;DHT22;31270;48.328;10.096;2023-07-29T06:37:35;17.80;99.90
45549;DHT22;31270;48.328;10.096;2023-07-29T06:40:01;18.00;99.90
45549;DHT22;31270;48.328;10.096;2023-07-29T06:42:27;18.40;99.90
45549;DHT22;31270;48.328;10.096;2023-07-29T06:44:52;18.70;99.90
45549;DHT22;31270;48.328;10.096;2023-07-29T06:47:18;18.80;99.90
45549;DHT22;31270;48.328;10.096;2023-07-29T06:49:45;18.90;99.90
45549;DHT22;31270;48.328;10.096;2023-07-29T06:52:11;19.00;99.90
45549;DHT22;31270;48.328;10.096;2023-07-29T06:54:37;19.20;99.90
45549;DHT22;31270;48.328;10.096;2023-07-29T06:57:02;19.40;99.90
45549;DHT22;31270;48.328;10.096;2023-07-29T06:59:28;19.60;99.90
45549;DHT22;31270;48.328;10.096;2023-07-29T07:01:54;19.80;99.90
45549;DHT22;31270;48.328;10.096;2023-07-29T07:04:19;19.70;99.90
45549;DHT22;31270;48.328;10.096;2023-07-29T07:06:45;19.70;99.90
45549;DHT22;31270;48.328;10.096;2023-07-29T07:09:10;19.70;99.90
45549;DHT22;31270;48.328;10.096;2023-07-29T07:11:36;19.70;99.90
45549;DHT22;31270;48.328;10.096;2023-07-29T07:14:01;20.00;99.90
45549;DHT22;31270;48.328;10.096;2023-07-29T07:16:27;19.90;99.90
45549;DHT22;31270;48.328;10.096;2023-07-29T07:18:56;20.00;99.90
45549;DHT22;31270;48.328;10.096;2023-07-29T07:21:23;20.20;99.90
45549;DHT22;31270;48.328;10.096;2023-07-29T07:23:51;20.20;99.90
45549;DHT22;31270;48.328;10.096;2023-07-29T07:26:17;20.20;99.90
45549;DHT22;31270;48.328;10.096;2023-07-29T07:28:43;20.30;99.90
45549;DHT22;31270;48.328;10.096;2023-07-29T07:31:09;20.40;99.90
45549;DHT22;31270;48.328;10.096;2023-07-29T07:33:34;20.40;99.90
45549;DHT22;31270;48.328;10.096;2023-07-29T07:36:00;20.50;99.90
45549;DHT22;31270;48.328;10.096;2023-07-29T07:38:26;20.70;99.90
45549;DHT22;31270;48.328;10.096;2023-07-29T07:40:55;20.70;99.90
45549;DHT22;31270;48.328;10.096;2023-07-29T07:43:22;20.90;99.90
45549;DHT22;31270;48.328;10.096;2023-07-29T07:45:48;21.10;99.90
45549;DHT22;31270;48.328;10.096;2023-07-29T07:48:14;21.30;99.90
45549;DHT22;31270;48.328;10.096;2023-07-29T07:50:42;21.40;99.90
45549;DHT22;31270;48.328;10.096;2023-07-29T07:53:08;21.50;99.90
45549;DHT22;31270;48.328;10.096;2023-07-29T07:55:33;21.50;99.90
45549;DHT22;31270;48.328;10.096;2023-07-29T07:57:59;21.70;99.90
45549;DHT22;31270;48.328;10.096;2023-07-29T08:00:25;22.10;99.90
45549;DHT22;31270;48.328;10.096;2023-07-29T08:02:50;22.50;99.90
45549;DHT22;31270;48.328;10.096;2023-07-29T08:05:16;22.60;99.90
45549;DHT22;31270;48.328;10.096;2023-07-29T08:07:41;22.90;99.90
45549;DHT22;31270;48.328;10.096;2023-07-29T08:10:07;23.20;99.90
45549;DHT22;31270;48.328;10.096;2023-07-29T08:12:33;23.40;99.90
45549;DHT22;31270;48.328;10.096;2023-07-29T08:14:59;23.40;99.90
45549;DHT22;31270;48.328;10.096;2023-07-29T08:17:24;23.80;99.90
45549;DHT22;31270;48.328;10.096;2023-07-29T08:19:50;24.00;99.90
45549;DHT22;31270;48.328;10.096;2023-07-29T08:22:16;23.80;99.90
45549;DHT22;31270;48.328;10.096;2023-07-29T08:24:42;24.00;99.90
45549;DHT22;31270;48.328;10.096;2023-07-29T08:27:08;24.30;99.90
45549;DHT22;31270;48.328;10.096;2023-07-29T08:29:34;24.30;99.90
45549;DHT22;31270;48.328;10.096;2023-07-29T08:31:59;24.10;99.90
45549;DHT22;31270;48.328;10.096;2023-07-29T08:34:25;24.40;99.90
45549;DHT22;31270;48.328;10.096;2023-07-29T08:36:51;24.50;99.90
45549;DHT22;31270;48.328;10.096;2023-07-29T08:39:16;24.50;99.90
45549;DHT22;31270;48.328;10.096;2023-07-29T08:42:01;24.10;99.90
45549;DHT22;31270;48.328;10.096;2023-07-29T08:44:35;24.00;99.90
45549;DHT22;31270;48.328;10.096;2023-07-29T08:47:01;23.70;99.90
45549;DHT22;31270;48.328;10.096;2023-07-29T08:49:27;23.80;99.90
45549;DHT22;31270;48.328;10.096;2023-07-29T08:51:54;23.80;99.90
45549;DHT22;31270;48.328;10.096;2023-07-29T08:54:21;23.80;99.90
45549;DHT22;31270;48.328;10.096;2023-07-29T08:56:47;23.70;99.90
45549;DHT22;31270;48.328;10.096;2023-07-29T08:59:13;23.60;99.90
45549;DHT22;31270;48.328;10.096;2023-07-29T09:01:39;23.40;99.90
45549;DHT22;31270;48.328;10.096;2023-07-29T09:04:05;23.40;99.90
45549;DHT22;31270;48.328;10.096;2023-07-29T09:06:31;23.30;99.90
45549;DHT22;31270;48.328;10.096;2023-07-29T09:08:58;23.20;99.90
45549;DHT22;31270;48.328;10.096;2023-07-29T09:11:24;23.10;99.90
45549;DHT22;31270;48.328;10.096;2023-07-29T09:13:50;23.00;99.90
45549;DHT22;31270;48.328;10.096;2023-07-29T09:16:19;23.00;99.90
45549;DHT22;31270;48.328;10.096;2023-07-29T09:18:48;22.90;99.90
45549;DHT22;31270;48.328;10.096;2023-07-29T09:21:17;22.90;99.90
45549;DHT22;31270;48.328;10.096;2023-07-29T09:23:44;22.80;99.90
45549;DHT22;31270;48.328;10.096;2023-07-29T09:26:11;22.70;99.90
45549;DHT22;31270;48.328;10.096;2023-07-29T09:28:38;22.40;99.90
45549;DHT22;31270;48.328;10.096;2023-07-29T09:31:04;22.30;99.90
45549;DHT22;31270;48.328;10.096;2023-07-29T09:33:33;22.20;99.90
45549;DHT22;31270;48.328;10.096;2023-07-29T09:36:01;22.10;99.90
45549;DHT22;31270;48.328;10.096;2023-07-29T09:38:29;22.10;99.90
45549;DHT22;31270;48.328;10.096;2023-07-29T09:40:56;22.30;99.90
45549;DHT22;31270;48.328;10.096;2023-07-29T09:43:29;22.30;99.90
45549;DHT22;31270;48.328;10.096;2023-07-29T09:45:55;22.40;99.90
45549;DHT22;31270;48.328;10.096;2023-07-29T09:48:25;22.40;99.90
45549;DHT22;31270;48.328;10.096;2023-07-29T09:50:50;22.40;99.90
45549;DHT22;31270;48.328;10.096;2023-07-29T09:53:17;22.50;99.90
45549;DHT22;31270;48.328;10.096;2023-07-29T09:55:53;22.40;99.90
45549;DHT22;31270;48.328;10.096;2023-07-29T09:58:28;22.50;99.90
45549;DHT22;31270;48.328;10.096;2023-07-29T10:00:53;22.60;99.90
45549;DHT22;31270;48.328;10.096;2023-07-29T10:03:21;22.60;99.90
45549;DHT22;31270;48.328;10.096;2023-07-29T10:05:47;22.70;99.90
45549;DHT22;31270;48.328;10.096;2023-07-29T10:08:14;22.90;99.90
45549;DHT22;31270;48.328;10.096;2023-07-29T10:10:42;23.00;99.90
45549;DHT22;31270;48.328;10.096;2023-07-29T10:13:09;23.10;99.90
45549;DHT22;31270;48.328;10.096;2023-07-29T10:15:36;23.70;99.90
45549;DHT22;31270;48.328;10.096;2023-07-29T10:18:02;24.10;99.90
45549;DHT22;31270;48.328;10.096;2023-07-29T10:20:32;24.50;99.90
45549;DHT22;31270;48.328;10.096;2023-07-29T10:23:00;24.70;99.90
45549;DHT22;31270;48.328;10.096;2023-07-29T10:25:37;24.90;99.90
45549;DHT22;31270;48.328;10.096;2023-07-29T10:28:08;25.20;99.90
45549;DHT22;31270;48.328;10.096;2023-07-29T10:30:34;25.60;99.90
45549;DHT22;31270;48.328;10.096;2023-07-29T10:33:02;25.70;99.90
45549;DHT22;31270;48.328;10.096;2023-07-29T10:35:28;25.90;99.90
45549;DHT22;31270;48.328;10.096;2023-07-29T10:37:55;26.10;99.90
45549;DHT22;31270;48.328;10.096;2023-07-29T10:40:21;26.60;99.90
45549;DHT22;31270;48.328;10.096;2023-07-29T10:43:19;26.40;99.90
45549;DHT22;31270;48.328;10.096;2023-07-29T10:45:48;26.30;99.90
45549;DHT22;31270;48.328;10.096;2023-07-29T10:54:02;25.10;99.90
45549;DHT22;31270;48.328;10.096;2023-07-29T10:56:33;24.50;99.90
45549;DHT22;31270;48.328;10.096;2023-07-29T11:01:39;23.80;99.90
45549;DHT22;31270;48.328;10.096;2023-07-29T11:15:24;23.50;99.90
45549;DHT22;31270;48.328;10.096;2023-07-29T11:17:53;23.60;99.90
45549;DHT22;31270;48.328;10.096;2023-07-29T11:20:21;24.00;99.90
45549;DHT22;31270;48.328;10.096;2023-07-29T11:22:48;24.40;99.90
45549;DHT22;31270;48.328;10.096;2023-07-29T11:25:15;24.70;99.90
45549;DHT22;31270;48.328;10.096;2023-07-29T11:27:41;24.80;99.90
45549;DHT22;31270;48.328;10.096;2023-07-29T11:30:09;25.20;99.90
45549;DHT22;31270;48.328;10.096;2023-07-29T11:32:37;25.50;99.90
45549;DHT22;31270;48.328;10.096;2023-07-29T11:35:08;25.60;99.90
45549;DHT22;31270;48.328;10.096;2023-07-29T11:37:35;25.50;99.90
45549;DHT22;31270;48.328;10.096;2023-07-29T11:40:01;25.80;99.90
45549;DHT22;31270;48.328;10.096;2023-07-29T11:42:28;26.20;99.90
45549;DHT22;31270;48.328;10.096;2023-07-29T11:44:57;26.50;99.90
45549;DHT22;31270;48.328;10.096;2023-07-29T11:47:24;26.90;99.90
45549;DHT22;31270;48.328;10.096;2023-07-29T11:49:50;27.30;99.90
45549;DHT22;31270;48.328;10.096;2023-07-29T11:52:15;27.50;99.90
45549;DHT22;31270;48.328;10.096;2023-07-29T11:54:45;27.90;99.90
45549;DHT22;31270;48.328;10.096;2023-07-29T11:57:11;28.10;99.90
45549;DHT22;31270;48.328;10.096;2023-07-29T11:59:37;28.30;99.90
45549;DHT22;31270;48.328;10.096;2023-07-29T12:02:22;28.20;99.90
45549;DHT22;31270;48.328;10.096;2023-07-29T12:04:49;28.10;99.90
45549;DHT22;31270;48.328;10.096;2023-07-29T12:07:17;28.30;99.90
45549;DHT22;31270;48.328;10.096;2023-07-29T12:09:42;28.20;99.90
45549;DHT22;31270;48.328;10.096;2023-07-29T12:12:09;28.10;99.90
45549;DHT22;31270;48.328;10.096;2023-07-29T12:14:35;28.40;99.90
45549;DHT22;31270;48.328;10.096;2023-07-29T12:17:02;28.30;99.90
45549;DHT22;31270;48.328;10.096;2023-07-29T12:19:35;28.50;99.90
45549;DHT22;31270;48.328;10.096;2023-07-29T12:22:09;29.00;99.90
45549;DHT22;31270;48.328;10.096;2023-07-29T12:24:40;28.90;99.90
45549;DHT22;31270;48.328;10.096;2023-07-29T12:27:14;29.00;99.90
45549;DHT22;31270;48.328;10.096;2023-07-29T12:29:44;29.30;99.90
45549;DHT22;31270;48.328;10.096;2023-07-29T12:32:11;29.50;99.90
45549;DHT22;31270;48.328;10.096;2023-07-29T12:34:38;29.80;99.90
45549;DHT22;31270;48.328;10.096;2023-07-29T12:37:06;30.20;99.90
45549;DHT22;31270;48.328;10.096;2023-07-29T12:39:40;29.90;99.90
45549;DHT22;31270;48.328;10.096;2023-07-29T12:42:08;29.60;99.90
45549;DHT22;31270;48.328;10.096;2023-07-29T12:44:35;28.90;99.90
45549;DHT22;31270;48.328;10.096;2023-07-29T12:47:02;29.00;99.90
45549;DHT22;31270;48.328;10.096;2023-07-29T12:49:29;29.20;99.90
45549;DHT22;31270;48.328;10.096;2023-07-29T12:51:56;29.20;99.90
45549;DHT22;31270;48.328;10.096;2023-07-29T12:54:22;29.50;99.90
45549;DHT22;31270;48.328;10.096;2023-07-29T12:56:47;29.60;99.90
45549;DHT22;31270;48.328;10.096;2023-07-29T12:59:13;29.80;99.90
45549;DHT22;31270;48.328;10.096;2023-07-29T13:01:38;29.70;99.90
45549;DHT22;31270;48.328;10.096;2023-07-29T13:04:04;29.30;99.90
45549;DHT22;31270;48.328;10.096;2023-07-29T13:06:30;29.00;99.90
45549;DHT22;31270;48.328;10.096;2023-07-29T13:08:56;29.20;99.90
45549;DHT22;31270;48.328;10.096;2023-07-29T13:11:22;29.10;99.90
45549;DHT22;31270;48.328;10.096;2023-07-29T13:13:47;29.10;99.90
45549;DHT22;31270;48.328;10.096;2023-07-29T13:16:13;29.20;99.90
45549;DHT22;31270;48.328;10.096;2023-07-29T13:18:39;29.20;99.90
45549;DHT22;31270;48.328;10.096;2023-07-29T13:21:06;28.90;99.90
45549;DHT22;31270;48.328;10.096;2023-07-29T13:23:32;28.90;99.90
45549;DHT22;31270;48.328;10.096;2023-07-29T13:25:58;28.90;99.90
45549;DHT22;31270;48.328;10.096;2023-07-29T13:28:23;29.00;99.90
45549;DHT22;31270;48.328;10.096;2023-07-29T13:30:49;28.60;99.90
45549;DHT22;31270;48.328;10.096;2023-07-29T13:33:22;28.60;99.90
45549;DHT22;31270;48.328;10.096;2023-07-29T13:35:47;29.00;99.90
45549;DHT22;31270;48.328;10.096;2023-07-29T13:38:13;29.00;99.90
45549;DHT22;31270;48.328;10.096;2023-07-29T13:40:38;29.00;99.90
45549;DHT22;31270;48.328;10.096;2023-07-29T13:43:04;28.80;99.90
45549;DHT22;31270;48.328;10.096;2023-07-29T13:45:36;28.80;99.90
45549;DHT22;31270;48.328;10.096;2023-07-29T13:48:01;28.60;99.90
45549;DHT22;31270;48.328;10.096;2023-07-29T13:50:28;28.80;99.90
45549;DHT22;31270;48.328;10.096;2023-07-29T13:52:54;28.60;99.90
45549;DHT22;31270;48.328;10.096;2023-07-29T13:55:21;28.40;99.90
45549;DHT22;31270;48.328;10.096;2023-07-29T13:57:47;28.30;99.90
45549;DHT22;31270;48.328;10.096;2023-07-29T14:00:13;28.20;99.90
45549;DHT22;31270;48.328;10.096;2023-07-29T14:02:39;28.30;99.90
45549;DHT22;31270;48.328;10.096;2023-07-29T14:05:04;28.20;99.90
45549;DHT22;31270;48.328;10.096;2023-07-29T14:07:32;28.10;99.90
45549;DHT22;31270;48.328;10.096;2023-07-29T14:09:58;28.10;99.90
45549;DHT22;31270;48.328;10.096;2023-07-29T14:12:23;28.20;99.90
45549;DHT22;31270;48.328;10.096;2023-07-29T14:14:49;28.20;99.90
45549;DHT22;31270;48.328;10.096;2023-07-29T14:17:15;28.10;99.90
45549;DHT22;31270;48.328;10.096;2023-07-29T14:19:40;28.20;99.90
45549;DHT22;31270;48.328;10.096;2023-07-29T14:22:06;27.90;99.90
45549;DHT22;31270;48.328;10.096;2023-07-29T14:24:32;27.90;99.90
45549;DHT22;31270;48.328;10.096;2023-07-29T14:26:57;28.00;99.90
45549;DHT22;31270;48.328;10.096;2023-07-29T14:29:23;28.10;99.90
45549;DHT22;31270;48.328;10.096;2023-07-29T14:31:49;27.80;99.90
45549;DHT22;31270;48.328;10.096;2023-07-29T14:34:14;27.80;99.90
45549;DHT22;31270;48.328;10.096;2023-07-29T14:36:40;27.80;99.90
45549;DHT22;31270;48.328;10.096;2023-07-29T14:39:05;27.90;99.90
45549;DHT22;31270;48.328;10.096;2023-07-29T14:41:31;27.70;99.90
45549;DHT22;31270;48.328;10.096;2023-07-29T14:43:57;27.70;99.90
45549;DHT22;31270;48.328;10.096;2023-07-29T14:46:22;27.70;99.90
45549;DHT22;31270;48.328;10.096;2023-07-29T14:48:48;27.60;99.90
45549;DHT22;31270;48.328;10.096;2023-07-29T14:51:14;27.60;99.90
45549;DHT22;31270;48.328;10.096;2023-07-29T14:53:40;27.70;99.90
45549;DHT22;31270;48.328;10.096;2023-07-29T14:56:05;27.60;99.90
45549;DHT22;31270;48.328;10.096;2023-07-29T14:58:31;27.60;99.90
45549;DHT22;31270;48.328;10.096;2023-07-29T15:00:57;27.70;99.90
45549;DHT22;31270;48.328;10.096;2023-07-29T15:03:23;27.50;99.90
45549;DHT22;31270;48.328;10.096;2023-07-29T15:05:49;27.40;99.90
45549;DHT22;31270;48.328;10.096;2023-07-29T15:08:15;27.40;99.90
45549;DHT22;31270;48.328;10.096;2023-07-29T15:10:40;27.30;99.90
45549;DHT22;31270;48.328;10.096;2023-07-29T15:13:06;27.40;99.90
45549;DHT22;31270;48.328;10.096;2023-07-29T15:15:32;27.10;99.90
45549;DHT22;31270;48.328;10.096;2023-07-29T15:17:57;27.20;99.90
45549;DHT22;31270;48.328;10.096;2023-07-29T15:20:23;27.20;99.90
45549;DHT22;31270;48.328;10.096;2023-07-29T15:22:48;27.10;99.90
45549;DHT22;31270;48.328;10.096;2023-07-29T15:25:14;27.10;99.90
45549;DHT22;31270;48.328;10.096;2023-07-29T15:27:39;27.10;99.90
45549;DHT22;31270;48.328;10.096;2023-07-29T15:30:06;27.00;99.90
45549;DHT22;31270;48.328;10.096;2023-07-29T15:32:32;27.00;99.90
45549;DHT22;31270;48.328;10.096;2023-07-29T15:34:58;26.90;99.90
45549;DHT22;31270;48.328;10.096;2023-07-29T15:37:25;27.00;99.90
45549;DHT22;31270;48.328;10.096;2023-07-29T15:39:51;26.50;99.90